Terminal Aerodrome Forecast
Issued by NWS

Home | Current Version | Previous Version | Text Only | Print | Product List | Glossary On
Versions: 1 2 3 4 5 6 7 8 9 10 11 12 13 14 15
579
FTUS44 KLZK 170542
TAFHRO
TAF
KHRO 170542Z 1706/1806 17007KT P6SM -RA SCT025 OVC080
      TEMPO 1708/1710 5SM BR OVC012
     FM171000 17007KT 4SM -RA SCT007 OVC012
     FM171300 18005KT 3SM BR OVC015
     FM171800 VRB03KT P6SM BKN020=

USA.gov is the U.S. government's official web portal to all federal, state and local government web resources and services.